Horrel Hill, South Carolina
Current Conditions -  °F | °C
As of 8:58 PM on Friday 28 Nov 2014 (Local Time) from KMMT Reporting Station
Clear Clear  
Wind Chill: 30°   Ceiling: Unl
Heat Index: 30°   Visibility: 10mi
Dew Point: 28°   Wind: 0mph
Humidity: 89%   Direction: NA
Pressure: 30.34"   Gusts: NA
Location:  33.8814°N, 80.8478°W
Report Text: KMMT 290158Z AUTO 00000KT 10SM CLR M01/M02 A3034 RMK AO2 SLP279 T10091025
Loading
Personal Weather Stations






























Interactive Weather Map New forecast layout! Learn more

10-Day Weather Forecast

Advertisements
Track Severe Weather on mobile